createdAt,value
2019-05-18T00:00:19.264Z,82.91
2019-05-18T00:01:19.251Z,83.22
2019-05-18T00:02:19.240Z,83.22
2019-05-18T00:03:19.231Z,83.32
2019-05-18T00:04:19.219Z,83.42
2019-05-18T00:05:20.060Z,83.52
2019-05-18T00:06:19.200Z,83.52
2019-05-18T00:07:19.475Z,83.62
2019-05-18T00:08:19.170Z,83.66
2019-05-18T00:09:19.160Z,83.76
2019-05-18T00:10:19.149Z,83.87
2019-05-18T00:11:19.192Z,83.97
2019-05-18T00:12:20.579Z,83.97
2019-05-18T00:13:19.119Z,84.07
2019-05-18T00:14:19.390Z,84.17
2019-05-18T00:15:19.109Z,84.28
2019-05-18T00:16:19.106Z,84.17
2019-05-18T00:17:25.203Z,84.28
2019-05-18T00:18:20.080Z,84.38
2019-05-18T00:19:19.060Z,84.38
2019-05-18T00:20:19.049Z,84.28
2019-05-18T00:21:19.834Z,84.17
2019-05-18T00:22:19.021Z,84.28
2019-05-18T00:23:19.048Z,84.28
2019-05-18T00:24:18.999Z,84.28
2019-05-18T00:25:18.989Z,84.28
2019-05-18T00:26:19.878Z,84.28
2019-05-18T00:27:19.248Z,84.28
2019-05-18T00:28:19.690Z,84.48
2019-05-18T00:29:18.999Z,84.48
2019-05-18T00:30:19.581Z,84.69
2019-05-18T00:31:18.934Z,84.69
2019-05-18T00:32:18.912Z,84.69
2019-05-18T00:33:19.066Z,84.58
2019-05-18T00:34:18.897Z,84.69
2019-05-18T00:35:18.918Z,84.69
2019-05-18T00:36:18.868Z,84.63
2019-05-18T00:37:19.687Z,84.72
2019-05-18T00:38:19.579Z,84.93
2019-05-18T00:39:19.120Z,84.83
2019-05-18T00:40:19.613Z,84.83
2019-05-18T00:41:18.889Z,84.93
2019-05-18T00:42:18.813Z,84.93
2019-05-18T00:43:18.867Z,84.83
2019-05-18T00:44:18.788Z,84.93
2019-05-18T00:45:18.775Z,84.93
2019-05-18T00:46:18.764Z,85.14
2019-05-18T00:47:18.787Z,85.28
2019-05-18T00:48:18.740Z,85.58
2019-05-18T00:49:18.734Z,85.58
2019-05-18T00:50:18.720Z,85.69
2019-05-18T00:51:18.987Z,85.69
2019-05-18T00:52:18.710Z,85.79
2019-05-18T00:53:19.435Z,85.69
2019-05-18T00:54:18.697Z,85.79
2019-05-18T00:55:18.666Z,85.79
2019-05-18T00:56:18.659Z,85.89
2019-05-18T00:57:18.925Z,86.10
2019-05-18T00:58:18.718Z,85.99
2019-05-18T00:59:18.736Z,86.10
2019-05-18T01:00:18.614Z,86.20
2019-05-18T01:01:18.621Z,86.24
2019-05-18T01:02:18.594Z,86.44
2019-05-18T01:03:18.874Z,86.55
2019-05-18T01:04:18.584Z,86.65
2019-05-18T01:05:18.595Z,86.75
2019-05-18T01:06:18.546Z,86.75
2019-05-18T01:07:18.536Z,86.75
2019-05-18T01:08:18.525Z,86.85
2019-05-18T01:09:18.528Z,86.85
2019-05-18T01:10:18.785Z,86.85
2019-05-18T01:11:18.545Z,86.96
2019-05-18T01:12:18.484Z,86.96
2019-05-18T01:13:18.474Z,87.06
2019-05-18T01:14:18.464Z,87.06
2019-05-18T01:15:18.445Z,87.16
2019-05-18T01:16:18.456Z,87.06
2019-05-18T01:17:18.874Z,87.06
2019-05-18T01:18:18.416Z,87.06
2019-05-18T01:19:18.405Z,87.06
2019-05-18T01:20:18.403Z,87.16
2019-05-18T01:21:18.384Z,87.16
2019-05-18T01:22:18.374Z,87.06
2019-05-18T01:23:18.414Z,87.16
2019-05-18T01:24:18.641Z,87.06
2019-05-18T01:25:18.342Z,87.06
2019-05-18T01:26:18.335Z,87.06
2019-05-18T01:27:18.322Z,87.06
2019-05-18T01:28:18.311Z,87.16
2019-05-18T01:29:18.375Z,87.06
2019-05-18T01:30:18.296Z,87.16
2019-05-18T01:31:18.273Z,87.06
2019-05-18T01:32:18.287Z,87.16
2019-05-18T01:33:18.253Z,87.26
2019-05-18T01:34:18.243Z,87.12
2019-05-18T01:35:18.272Z,87.02
2019-05-18T01:36:18.224Z,86.91
2019-05-18T01:37:19.098Z,86.91
2019-05-18T01:38:18.803Z,86.81
2019-05-18T01:39:18.203Z,86.71
2019-05-18T01:40:18.200Z,86.85
2019-05-18T01:41:18.210Z,86.85
2019-05-18T01:42:18.162Z,86.85
2019-05-18T01:43:18.197Z,86.96
2019-05-18T01:44:18.431Z,86.96
2019-05-18T01:45:18.692Z,86.96
2019-05-18T01:46:18.124Z,86.85
2019-05-18T01:47:19.623Z,86.85
2019-05-18T01:48:18.733Z,86.85
2019-05-18T01:49:18.732Z,86.96
2019-05-18T01:50:18.072Z,87.06
2019-05-18T01:51:18.920Z,87.06
2019-05-18T01:52:18.051Z,87.16
2019-05-18T01:53:18.091Z,87.16
2019-05-18T01:54:18.032Z,87.16
2019-05-18T01:55:18.025Z,87.16
2019-05-18T01:56:18.012Z,87.26
2019-05-18T01:57:18.002Z,87.26
2019-05-18T01:58:18.732Z,87.16
2019-05-18T01:59:18.731Z,87.26
2019-05-18T02:01:41.564Z,87.26
2019-05-18T02:02:40.880Z,87.30
2019-05-18T02:03:40.644Z,87.41
2019-05-18T02:04:40.635Z,87.51
2019-05-18T02:05:40.634Z,87.47
2019-05-18T02:06:40.616Z,87.37
2019-05-18T02:07:41.109Z,87.26
2019-05-18T02:08:40.585Z,87.26
2019-05-18T02:09:40.574Z,87.26
2019-05-18T02:10:40.563Z,87.37
2019-05-18T02:11:40.563Z,87.37
2019-05-18T02:12:40.543Z,87.26
2019-05-18T02:13:40.564Z,87.26
2019-05-18T02:14:40.523Z,87.26
2019-05-18T02:15:40.513Z,87.26
2019-05-18T02:16:40.522Z,87.26
2019-05-18T02:17:40.493Z,87.26
2019-05-18T02:18:40.493Z,87.37
2019-05-18T02:19:40.801Z,87.37
2019-05-18T02:20:40.533Z,87.37
2019-05-18T02:21:40.490Z,87.26
2019-05-18T02:22:40.454Z,87.26
2019-05-18T02:23:40.432Z,87.26
2019-05-18T02:24:40.422Z,87.16
2019-05-18T02:25:40.442Z,87.06
2019-05-18T02:26:40.399Z,87.06
2019-05-18T02:27:40.390Z,87.06
2019-05-18T02:28:40.371Z,86.96
2019-05-18T02:29:40.374Z,86.96
2019-05-18T02:30:40.365Z,86.96
2019-05-18T02:31:40.393Z,86.85
2019-05-18T02:32:40.332Z,86.85
2019-05-18T02:33:40.330Z,86.96
2019-05-18T02:34:40.328Z,86.96
2019-05-18T02:35:40.327Z,86.96
2019-05-18T02:36:40.291Z,87.06
2019-05-18T02:37:40.650Z,86.96
2019-05-18T02:38:40.273Z,86.85
2019-05-18T02:39:40.269Z,86.96
2019-05-18T02:40:40.253Z,86.96
2019-05-18T02:41:40.261Z,86.96
2019-05-18T02:42:41.099Z,87.06
2019-05-18T02:43:41.071Z,87.06
2019-05-18T02:44:41.381Z,86.96
2019-05-18T02:45:40.210Z,87.06
2019-05-18T02:46:40.182Z,86.96
2019-05-18T02:47:40.190Z,87.06
2019-05-18T02:48:49.380Z,87.16
2019-05-18T02:49:41.270Z,87.26
2019-05-18T02:50:40.153Z,87.30
2019-05-18T02:51:40.419Z,87.30
2019-05-18T02:52:40.150Z,87.51
2019-05-18T02:53:40.114Z,87.51
2019-05-18T02:54:40.099Z,87.61
2019-05-18T02:55:40.146Z,87.61
2019-05-18T02:56:40.085Z,87.71
2019-05-18T02:57:40.149Z,87.82
2019-05-18T02:58:40.339Z,87.82
2019-05-18T02:59:40.052Z,87.82
2019-05-18T03:00:40.039Z,87.82
2019-05-18T03:01:40.058Z,87.92
2019-05-18T03:02:40.023Z,88.02
2019-05-18T03:03:40.006Z,87.92
2019-05-18T03:04:39.989Z,87.92
2019-05-18T03:05:40.269Z,87.92
2019-05-18T03:06:39.979Z,87.92
2019-05-18T03:07:40.000Z,87.82
2019-05-18T03:08:39.947Z,87.71
2019-05-18T03:09:39.940Z,87.61
2019-05-18T03:10:39.936Z,87.71
2019-05-18T03:11:39.918Z,87.61
2019-05-18T03:12:40.196Z,87.51
2019-05-18T03:13:39.980Z,87.51
2019-05-18T03:14:39.896Z,87.51
2019-05-18T03:15:39.877Z,87.41
2019-05-18T03:16:39.867Z,87.30
2019-05-18T03:17:39.861Z,87.30
2019-05-18T03:18:39.848Z,87.30
2019-05-18T03:19:39.896Z,87.16
2019-05-18T03:20:39.827Z,87.16
2019-05-18T03:21:39.818Z,87.06
2019-05-18T03:22:39.834Z,86.96
2019-05-18T03:23:39.794Z,86.85
2019-05-18T03:24:40.656Z,86.75
2019-05-18T03:25:39.808Z,86.65
2019-05-18T03:26:39.769Z,86.69
2019-05-18T03:27:39.765Z,86.58
2019-05-18T03:28:39.802Z,86.58
2019-05-18T03:29:39.735Z,86.48
2019-05-18T03:30:39.733Z,86.28
2019-05-18T03:31:40.757Z,86.38
2019-05-18T03:32:39.703Z,86.38
2019-05-18T03:33:39.707Z,86.48
2019-05-18T03:34:39.685Z,86.48
2019-05-18T03:35:39.669Z,86.48
2019-05-18T03:36:39.945Z,86.63
2019-05-18T03:37:39.814Z,86.63
2019-05-18T03:38:39.654Z,86.83
2019-05-18T03:39:39.624Z,86.83
2019-05-18T03:40:39.624Z,86.93
2019-05-18T03:41:39.606Z,86.83
2019-05-18T03:42:39.593Z,87.04
2019-05-18T03:43:39.644Z,87.34
2019-05-18T03:44:39.574Z,87.45
2019-05-18T03:45:39.571Z,87.65
2019-05-18T03:46:40.413Z,87.76
2019-05-18T03:47:39.544Z,87.85
2019-05-18T03:48:39.811Z,87.85
2019-05-18T03:49:39.598Z,88.10
2019-05-18T03:50:39.510Z,88.21
2019-05-18T03:51:39.493Z,88.51
2019-05-18T03:52:39.494Z,88.62
2019-05-18T03:53:39.477Z,88.72
2019-05-18T03:54:39.487Z,88.82
2019-05-18T03:55:39.575Z,88.92
2019-05-18T03:56:39.467Z,88.92
2019-05-18T03:57:39.450Z,88.92
2019-05-18T03:58:39.423Z,88.92
2019-05-18T03:59:39.421Z,89.03
2019-05-18T04:00:39.689Z,89.03
2019-05-18T04:01:39.428Z,89.13
2019-05-18T04:02:39.382Z,89.13
2019-05-18T04:03:39.361Z,89.13
2019-05-18T04:04:39.362Z,89.13
2019-05-18T04:05:39.362Z,89.13
2019-05-18T04:06:39.332Z,89.13
2019-05-18T04:07:39.682Z,89.03
2019-05-18T04:08:39.318Z,89.03
2019-05-18T04:09:39.304Z,88.98
2019-05-18T04:10:39.295Z,88.88
2019-05-18T04:11:39.288Z,88.88
2019-05-18T04:12:39.273Z,88.88
2019-05-18T04:13:39.320Z,88.78
2019-05-18T04:14:39.540Z,88.68
2019-05-18T04:15:39.241Z,88.57
2019-05-18T04:16:39.235Z,88.57
2019-05-18T04:17:39.231Z,88.33
2019-05-18T04:18:39.223Z,88.12
2019-05-18T04:19:46.269Z,87.82
2019-05-18T04:20:40.189Z,87.71
2019-05-18T04:21:39.459Z,87.82
2019-05-18T04:22:39.169Z,87.71
2019-05-18T04:23:39.159Z,87.61
2019-05-18T04:24:39.156Z,87.71
2019-05-18T04:25:43.303Z,87.71
2019-05-18T04:26:39.221Z,87.61
2019-05-18T04:27:39.121Z,87.30
2019-05-18T04:28:39.392Z,87.30
2019-05-18T04:29:39.097Z,87.51
2019-05-18T04:30:39.078Z,87.41
2019-05-18T04:31:39.110Z,87.55
2019-05-18T04:32:39.087Z,87.55
2019-05-18T04:33:39.048Z,87.76
2019-05-18T04:34:39.038Z,87.71
2019-05-18T04:35:39.310Z,87.61
2019-05-18T04:36:39.019Z,87.51
2019-05-18T04:37:39.055Z,87.30
2019-05-18T04:38:39.011Z,87.34
2019-05-18T04:39:38.988Z,87.34
2019-05-18T04:40:38.975Z,87.24
2019-05-18T04:41:38.964Z,87.45
2019-05-18T04:42:39.277Z,87.55
2019-05-18T04:43:39.015Z,87.55
2019-05-18T04:44:39.512Z,87.65
2019-05-18T04:45:38.931Z,87.65
2019-05-18T04:46:38.909Z,87.70
2019-05-18T04:47:38.904Z,87.79
2019-05-18T04:48:38.902Z,87.79
2019-05-18T04:49:39.418Z,87.76
2019-05-18T04:50:38.871Z,87.76
2019-05-18T04:51:39.521Z,87.65
2019-05-18T04:52:38.862Z,87.65
2019-05-18T04:53:38.875Z,87.65
2019-05-18T04:54:38.836Z,87.65
2019-05-18T04:55:38.856Z,87.55
2019-05-18T04:56:42.695Z,87.55
2019-05-18T04:57:38.795Z,87.34
2019-05-18T04:58:38.787Z,87.41
2019-05-18T04:59:38.781Z,87.30
2019-05-18T05:00:38.766Z,87.10
2019-05-18T05:01:38.808Z,86.90
2019-05-18T05:02:38.748Z,86.58
2019-05-18T05:03:38.736Z,86.69
2019-05-18T05:04:38.725Z,86.79
2019-05-18T05:05:38.717Z,86.79
2019-05-18T05:06:38.695Z,86.65
2019-05-18T05:07:39.008Z,86.65
2019-05-18T05:08:38.680Z,86.44
2019-05-18T05:09:38.667Z,86.44
2019-05-18T05:10:38.654Z,86.44
2019-05-18T05:11:38.651Z,86.20
2019-05-18T05:12:38.641Z,85.99
2019-05-18T05:13:38.674Z,85.79
2019-05-18T05:14:38.614Z,85.55
2019-05-18T05:15:38.614Z,85.34
2019-05-18T05:16:38.594Z,85.24
2019-05-18T05:17:38.584Z,85.24
2019-05-18T05:18:38.574Z,84.99
2019-05-18T05:19:38.682Z,84.79
2019-05-18T05:20:38.553Z,84.58
2019-05-18T05:21:38.541Z,84.28
2019-05-18T05:22:38.535Z,84.28
2019-05-18T05:23:38.527Z,84.24
2019-05-18T05:24:38.513Z,83.93
2019-05-18T05:25:38.839Z,83.93
2019-05-18T05:26:39.816Z,83.83
2019-05-18T05:27:38.479Z,83.69
2019-05-18T05:28:38.472Z,83.38
2019-05-18T05:29:38.453Z,83.18
2019-05-18T05:30:38.444Z,83.07
2019-05-18T05:31:38.494Z,83.07
2019-05-18T05:32:39.156Z,82.97
2019-05-18T05:33:38.413Z,82.97
2019-05-18T05:34:40.113Z,82.97
2019-05-18T05:35:39.144Z,82.87
2019-05-18T05:36:39.440Z,82.73
2019-05-18T05:37:39.843Z,82.73
2019-05-18T05:38:38.943Z,82.63
2019-05-18T05:39:38.352Z,82.53
2019-05-18T05:40:38.342Z,82.42
2019-05-18T05:41:38.322Z,82.01
2019-05-18T05:42:38.322Z,81.98
2019-05-18T05:43:38.643Z,81.87
2019-05-18T05:44:38.291Z,81.77
2019-05-18T05:45:38.282Z,81.77
2019-05-18T05:46:38.271Z,81.67
2019-05-18T05:47:38.263Z,81.87
2019-05-18T05:48:38.251Z,81.84
2019-05-18T05:49:38.291Z,81.43
2019-05-18T05:50:38.573Z,81.23
2019-05-18T05:51:38.905Z,81.02
2019-05-18T05:52:38.221Z,80.91
2019-05-18T05:53:40.061Z,80.91
2019-05-18T05:54:38.191Z,80.91
2019-05-18T05:55:38.232Z,81.18
2019-05-18T05:56:38.161Z,80.78
2019-05-18T05:57:38.152Z,80.68
2019-05-18T05:58:41.541Z,80.68
2019-05-18T05:59:38.131Z,80.57
2019-05-18T06:00:38.122Z,80.57
2019-05-18T06:01:38.140Z,80.27
2019-05-18T06:02:38.105Z,80.47
2019-05-18T06:03:38.370Z,80.33
2019-05-18T06:04:38.100Z,80.13
2019-05-18T06:05:38.070Z,79.62
2019-05-18T06:06:38.057Z,79.62
2019-05-18T06:07:38.079Z,79.62
2019-05-18T06:08:38.030Z,79.48
2019-05-18T06:09:38.059Z,79.48
2019-05-18T06:10:38.371Z,79.48
2019-05-18T06:11:38.699Z,79.27
2019-05-18T06:12:38.712Z,79.17
2019-05-18T06:13:38.481Z,78.93
2019-05-18T06:14:38.701Z,79.03
2019-05-18T06:15:37.960Z,78.42
2019-05-18T06:16:38.592Z,78.42
2019-05-18T06:17:37.956Z,78.28
2019-05-18T06:18:37.928Z,78.08
2019-05-18T06:19:37.977Z,77.98
2019-05-18T06:20:50.439Z,77.98
2019-05-18T06:21:38.909Z,77.98
2019-05-18T06:22:37.888Z,77.78
2019-05-18T06:23:37.876Z,77.67
2019-05-18T06:24:37.865Z,77.57
2019-05-18T06:25:37.906Z,77.78
2019-05-18T06:26:37.843Z,77.74
2019-05-18T06:27:37.828Z,77.53
2019-05-18T06:28:37.838Z,77.33
2019-05-18T06:29:37.817Z,77.53
2019-05-18T06:30:37.798Z,77.64
2019-05-18T06:31:37.845Z,77.53
2019-05-18T06:32:37.785Z,77.23
2019-05-18T06:33:37.775Z,77.03
2019-05-18T06:34:37.759Z,76.89
2019-05-18T06:35:38.027Z,76.99
2019-05-18T06:36:37.747Z,76.79
2019-05-18T06:37:37.758Z,76.89
2019-05-18T06:38:37.733Z,76.99
2019-05-18T06:39:37.718Z,77.09
2019-05-18T06:40:37.806Z,76.75
2019-05-18T06:41:37.745Z,76.65
2019-05-18T06:42:37.676Z,76.45
2019-05-18T06:43:37.707Z,76.25
2019-05-18T06:44:37.656Z,76.25
2019-05-18T06:45:37.647Z,76.14
2019-05-18T06:46:37.635Z,75.94
2019-05-18T06:47:37.985Z,75.70
2019-05-18T06:48:37.617Z,75.70
2019-05-18T06:49:38.433Z,75.49
2019-05-18T06:50:37.600Z,75.49
2019-05-18T06:51:37.593Z,75.49
2019-05-18T06:52:37.578Z,75.36
2019-05-18T06:53:37.568Z,75.36
2019-05-18T06:54:37.547Z,75.12
2019-05-18T06:55:37.591Z,74.71
2019-05-18T06:56:37.533Z,74.92
2019-05-18T06:57:37.516Z,75.12
2019-05-18T06:58:37.536Z,74.41
2019-05-18T06:59:37.856Z,73.90
2019-05-18T07:00:37.485Z,73.90
2019-05-18T07:01:37.516Z,73.77
2019-05-18T07:02:37.470Z,73.36
2019-05-18T07:03:37.474Z,73.46
2019-05-18T07:04:37.474Z,73.12
2019-05-18T07:05:37.453Z,72.92
2019-05-18T07:06:37.426Z,72.41
2019-05-18T07:07:37.468Z,72.08
2019-05-18T07:08:37.405Z,71.88
2019-05-18T07:09:37.399Z,71.64
2019-05-18T07:10:37.376Z,71.20
2019-05-18T07:11:37.746Z,70.89
2019-05-18T07:12:37.388Z,70.39
2019-05-18T07:13:37.417Z,70.49
2019-05-18T07:14:37.354Z,70.45
2019-05-18T07:15:37.377Z,70.05
2019-05-18T07:16:38.310Z,70.05
2019-05-18T07:17:37.393Z,70.02
2019-05-18T07:18:37.524Z,69.10
2019-05-18T07:19:37.325Z,68.60
2019-05-18T07:20:37.455Z,68.26
2019-05-18T07:21:37.454Z,67.93
2019-05-18T07:22:38.148Z,66.99
2019-05-18T07:23:39.558Z,66.48
2019-05-18T07:24:38.413Z,65.64
2019-05-18T07:25:37.605Z,65.54
2019-05-18T07:26:37.621Z,65.54
2019-05-18T07:27:38.127Z,65.44
2019-05-18T07:28:42.650Z,65.01
2019-05-18T07:29:37.937Z,64.90
2019-05-18T07:30:37.405Z,64.37
2019-05-18T07:31:37.550Z,64.07
2019-05-18T07:32:38.816Z,63.64
2019-05-18T07:33:37.384Z,63.40
2019-05-18T07:34:37.154Z,62.70
2019-05-18T07:35:37.222Z,62.19
2019-05-18T07:36:38.807Z,61.56
2019-05-18T07:37:39.245Z,61.43
2019-05-18T07:38:37.803Z,61.33
2019-05-18T07:39:37.084Z,60.93
2019-05-18T07:40:37.054Z,60.89
2019-05-18T07:41:46.185Z,60.29
2019-05-18T07:42:38.084Z,60.06
2019-05-18T07:43:37.795Z,58.48
2019-05-18T07:44:37.134Z,58.68
2019-05-18T07:45:37.004Z,59.31
2019-05-18T07:46:37.274Z,59.31
2019-05-18T07:47:37.344Z,58.07
2019-05-18T07:48:37.851Z,58.18
2019-05-18T07:49:37.694Z,58.58
2019-05-18T07:50:37.213Z,58.18
2019-05-18T07:51:37.556Z,58.22
2019-05-18T07:52:37.184Z,57.82
2019-05-18T07:53:37.878Z,58.02
2019-05-18T07:54:37.114Z,57.39
2019-05-18T07:55:38.753Z,56.99
2019-05-18T07:56:36.924Z,57.26
2019-05-18T07:57:36.877Z,56.06
2019-05-18T07:58:36.864Z,56.16
2019-05-18T07:59:37.779Z,55.46
2019-05-18T08:00:37.498Z,55.13
2019-05-18T08:01:36.848Z,55.13
2019-05-18T08:02:37.514Z,55.60
2019-05-18T08:03:38.148Z,55.58
2019-05-18T08:04:39.714Z,54.77
2019-05-18T08:05:36.795Z,54.38
2019-05-18T08:06:36.824Z,54.65
2019-05-18T08:07:36.872Z,54.35
2019-05-18T08:08:36.792Z,54.05
2019-05-18T08:09:36.743Z,53.75
2019-05-18T08:10:36.753Z,53.85
2019-05-18T08:11:36.732Z,53.85
2019-05-18T08:12:37.279Z,53.62
2019-05-18T08:13:36.765Z,53.92
2019-05-18T08:14:37.570Z,53.07
2019-05-18T08:15:37.603Z,52.17
2019-05-18T08:16:40.045Z,52.19
2019-05-18T08:17:38.323Z,52.17
2019-05-18T08:18:37.814Z,51.97
2019-05-18T08:19:36.635Z,51.54
2019-05-18T08:20:37.045Z,51.54
2019-05-18T08:21:50.843Z,51.72
2019-05-18T08:22:38.408Z,51.54
2019-05-18T08:23:38.564Z,51.74
2019-05-18T08:24:39.355Z,50.89
2019-05-18T08:25:37.173Z,50.57
2019-05-18T08:26:36.993Z,49.74
2019-05-18T08:27:38.615Z,50.37
2019-05-18T08:28:37.916Z,50.20
2019-05-18T08:29:37.803Z,50.84
2019-05-18T08:30:38.284Z,51.34
2019-05-18T08:31:38.515Z,51.04
2019-05-18T08:32:40.036Z,50.64
2019-05-18T08:33:38.976Z,50.62
2019-05-18T08:34:37.437Z,49.87
2019-05-18T08:35:36.657Z,49.47
2019-05-18T08:36:37.504Z,49.27
2019-05-18T08:37:37.868Z,49.97
2019-05-18T08:38:36.655Z,49.87
2019-05-18T08:39:37.115Z,49.44
2019-05-18T08:40:37.606Z,48.63
2019-05-18T08:41:38.571Z,48.60
2019-05-18T08:42:38.297Z,47.80
2019-05-18T08:43:37.109Z,48.72
2019-05-18T08:44:40.612Z,48.80
2019-05-18T08:45:37.177Z,48.50
2019-05-18T08:46:39.080Z,47.78
2019-05-18T08:47:37.469Z,48.10
2019-05-18T08:48:37.636Z,48.08
2019-05-18T08:49:39.724Z,47.44
2019-05-18T08:50:37.406Z,46.61
2019-05-18T08:51:36.619Z,46.91
2019-05-18T08:52:40.034Z,46.51
2019-05-18T08:54:18.275Z,46.30
2019-05-18T08:54:49.296Z,46.09
2019-05-18T08:55:42.710Z,45.60
2019-05-18T08:56:38.906Z,45.28
2019-05-18T08:57:38.070Z,44.54
2019-05-18T08:58:39.068Z,44.32
2019-05-18T08:59:39.994Z,43.50
2019-05-18T09:00:37.827Z,43.74
2019-05-18T09:01:40.475Z,44.06
2019-05-18T09:02:37.804Z,44.36
2019-05-18T09:03:39.327Z,43.72
2019-05-18T09:04:36.927Z,42.21
2019-05-18T09:05:37.516Z,41.53
2019-05-18T09:06:37.059Z,41.93
2019-05-18T09:07:36.866Z,41.63
2019-05-18T09:08:37.149Z,42.07
2019-05-18T09:09:36.658Z,42.33
2019-05-18T09:10:38.352Z,41.09
2019-05-18T09:11:39.500Z,40.68
2019-05-18T09:12:38.636Z,40.86
2019-05-18T09:13:38.167Z,40.90
2019-05-18T09:14:38.207Z,42.13
2019-05-18T09:15:36.686Z,42.72
2019-05-18T09:16:37.787Z,42.83
2019-05-18T09:17:38.188Z,42.83
2019-05-18T09:18:36.918Z,43.02
2019-05-18T09:19:36.559Z,41.44
2019-05-18T09:20:38.903Z,41.87
2019-05-18T09:21:36.938Z,42.09
2019-05-18T09:22:39.362Z,42.51
2019-05-18T09:23:39.990Z,42.85
2019-05-18T09:24:36.915Z,43.45
2019-05-18T09:25:37.457Z,42.07
2019-05-18T09:26:37.830Z,40.94
2019-05-18T09:27:37.646Z,40.42
2019-05-18T09:28:39.177Z,40.24
2019-05-18T09:29:38.688Z,39.45
2019-05-18T09:30:36.587Z,40.05
2019-05-18T09:31:36.750Z,40.12
2019-05-18T09:32:37.924Z,39.28
2019-05-18T09:33:36.332Z,38.42
2019-05-18T09:34:36.737Z,37.99
2019-05-18T09:35:36.339Z,38.62
2019-05-18T09:36:37.880Z,38.72
2019-05-18T09:37:36.599Z,38.92
2019-05-18T09:38:35.796Z,38.82
2019-05-18T09:39:35.809Z,39.55
2019-05-18T09:40:37.348Z,39.75
2019-05-18T09:41:36.886Z,39.34
2019-05-18T09:42:37.694Z,39.95
2019-05-18T09:43:37.876Z,39.75
2019-05-18T09:44:38.798Z,39.31
2019-05-18T09:45:37.410Z,39.23
2019-05-18T09:46:36.118Z,38.82
2019-05-18T09:47:38.790Z,38.40
2019-05-18T09:48:41.853Z,38.03
2019-05-18T09:49:37.543Z,38.54
2019-05-18T09:50:40.551Z,38.24
2019-05-18T09:51:38.553Z,37.32
2019-05-18T09:52:44.723Z,37.60
2019-05-18T09:53:49.472Z,37.41
2019-05-18T09:54:38.551Z,37.63
2019-05-18T09:55:37.783Z,37.95
2019-05-18T09:56:37.838Z,38.05
2019-05-18T09:57:38.833Z,38.98
2019-05-18T09:58:36.003Z,39.67
2019-05-18T09:59:38.529Z,39.36
2019-05-18T10:00:39.128Z,38.44
2019-05-18T10:01:36.461Z,37.62
2019-05-18T10:02:37.050Z,36.79
2019-05-18T10:03:35.822Z,35.24
2019-05-18T10:04:36.501Z,34.49
2019-05-18T10:05:39.769Z,34.51
2019-05-18T10:06:38.650Z,34.94
2019-05-18T10:07:39.632Z,34.97
2019-05-18T10:08:51.504Z,35.28
2019-05-18T10:11:53.784Z,37.13
2019-05-18T10:12:53.193Z,36.71
2019-05-18T10:13:53.242Z,36.41
2019-05-18T10:14:52.903Z,36.10
2019-05-18T10:15:56.810Z,34.66
2019-05-18T10:16:52.567Z,34.78
2019-05-18T10:17:52.647Z,34.79
2019-05-18T10:18:52.785Z,34.99
2019-05-18T10:19:55.848Z,34.88
2019-05-18T10:20:55.787Z,34.67
2019-05-18T10:21:56.549Z,34.66
2019-05-18T10:24:31.370Z,33.94
2019-05-18T10:25:30.641Z,33.94
2019-05-18T10:26:33.164Z,33.85
2019-05-18T10:27:32.448Z,33.94
2019-05-18T10:28:30.531Z,33.51
2019-05-18T10:29:34.801Z,32.17
2019-05-18T10:30:31.041Z,30.93
2019-05-18T10:31:31.551Z,29.72
2019-05-18T10:32:31.003Z,29.00
2019-05-18T10:33:31.031Z,29.43
2019-05-18T10:34:34.123Z,30.12
2019-05-18T10:35:31.028Z,30.11
2019-05-18T10:36:30.871Z,29.60
2019-05-18T10:37:31.911Z,28.50
2019-05-18T10:38:35.943Z,29.33
2019-05-18T10:39:30.631Z,29.31
2019-05-18T10:40:30.651Z,28.81
2019-05-18T10:41:30.262Z,29.03
2019-05-18T10:42:32.231Z,30.02
2019-05-18T10:43:32.630Z,29.63
2019-05-18T10:44:35.010Z,28.92
2019-05-18T10:45:32.450Z,28.31
2019-05-18T10:46:33.610Z,28.30
2019-05-18T10:47:31.026Z,28.50
2019-05-18T10:48:31.782Z,28.19
2019-05-18T10:49:31.221Z,28.61
2019-05-18T10:50:34.737Z,28.81
2019-05-18T10:51:33.764Z,28.72
2019-05-18T10:52:30.870Z,28.51
2019-05-18T10:53:30.508Z,27.81
2019-05-18T10:54:30.666Z,28.23
2019-05-18T10:55:30.991Z,28.95
2019-05-18T10:56:31.314Z,29.97
2019-05-18T10:57:31.838Z,30.49
2019-05-18T10:58:30.807Z,30.18
2019-05-18T10:59:32.307Z,29.76
2019-05-18T11:00:31.139Z,29.68
2019-05-18T11:01:31.528Z,29.64
2019-05-18T11:02:30.929Z,28.85
2019-05-18T11:03:32.913Z,28.34
2019-05-18T11:04:30.397Z,27.92
2019-05-18T11:05:30.972Z,27.62
2019-05-18T11:06:31.435Z,27.49
2019-05-18T11:07:30.148Z,28.02
2019-05-18T11:08:30.454Z,28.23
2019-05-18T11:09:34.089Z,27.50
2019-05-18T11:10:30.181Z,26.89
2019-05-18T11:11:31.029Z,26.50
2019-05-18T11:12:32.972Z,26.21
2019-05-18T11:13:31.563Z,26.92
2019-05-18T11:14:30.236Z,27.42
2019-05-18T11:15:31.067Z,27.55
2019-05-18T11:16:32.146Z,28.57
2019-05-18T11:17:32.588Z,28.57
2019-05-18T11:18:32.227Z,28.03
2019-05-18T11:19:31.436Z,27.21
2019-05-18T11:20:30.668Z,26.21
2019-05-18T11:21:30.848Z,26.75
2019-05-18T11:22:31.467Z,28.40
2019-05-18T11:23:42.881Z,28.30
2019-05-18T11:24:31.007Z,28.58
2019-05-18T11:25:30.237Z,27.45
2019-05-18T11:26:30.821Z,27.34
2019-05-18T11:27:29.803Z,26.44
2019-05-18T11:28:29.910Z,26.51
2019-05-18T11:29:30.712Z,26.34
2019-05-18T11:30:30.462Z,27.04
2019-05-18T11:31:29.768Z,26.22
2019-05-18T11:32:30.197Z,26.45
2019-05-18T11:33:31.697Z,27.99
2019-05-18T11:34:30.458Z,28.79
2019-05-18T11:35:32.572Z,28.92
2019-05-18T11:36:32.754Z,28.63
2019-05-18T11:37:30.970Z,29.72
2019-05-18T11:38:31.929Z,28.91
2019-05-18T11:39:31.036Z,29.00
2019-05-18T11:40:29.655Z,28.58
2019-05-18T11:41:29.629Z,27.35
2019-05-18T11:42:30.542Z,26.32
2019-05-18T11:43:31.487Z,25.89
2019-05-18T11:44:30.755Z,25.32
2019-05-18T11:45:31.552Z,25.15
2019-05-18T11:46:32.651Z,25.46
2019-05-18T11:47:32.683Z,25.45
2019-05-18T11:48:32.454Z,25.66
2019-05-18T11:49:30.611Z,26.09
2019-05-18T11:50:31.870Z,26.17
2019-05-18T11:51:31.192Z,26.37
2019-05-18T11:52:31.888Z,25.54
2019-05-18T11:53:29.514Z,25.04
2019-05-18T11:54:29.533Z,24.53
2019-05-18T11:55:29.502Z,24.96
2019-05-18T11:56:29.487Z,25.24
2019-05-18T11:57:31.392Z,24.54
2019-05-18T11:58:29.495Z,25.04
2019-05-18T11:59:32.086Z,24.63
2019-05-18T12:00:30.516Z,24.74
2019-05-18T12:01:30.423Z,24.84
2019-05-18T12:02:29.414Z,25.04
2019-05-18T12:03:29.402Z,24.35
2019-05-18T12:04:29.403Z,25.24
2019-05-18T12:05:30.848Z,25.09
2019-05-18T12:06:31.060Z,25.38
2019-05-18T12:07:29.392Z,25.85
2019-05-18T12:08:30.295Z,26.01
2019-05-18T12:09:29.378Z,25.01
2019-05-18T12:10:32.322Z,24.00
2019-05-18T12:11:30.994Z,23.73
2019-05-18T12:12:29.608Z,23.73
2019-05-18T12:13:30.032Z,23.93
2019-05-18T12:14:29.478Z,23.83
2019-05-18T12:15:30.527Z,25.05
2019-05-18T12:16:29.294Z,24.33
2019-05-18T12:17:29.303Z,23.98
2019-05-18T12:18:29.715Z,24.49
2019-05-18T12:19:30.595Z,25.20
2019-05-18T12:20:31.064Z,25.49
2019-05-18T12:21:30.131Z,26.21
2019-05-18T12:22:30.135Z,27.39
2019-05-18T12:23:29.209Z,27.25
2019-05-18T12:24:29.235Z,26.23
2019-05-18T12:25:31.159Z,25.33
2019-05-18T12:26:29.988Z,26.45
2019-05-18T12:27:29.195Z,28.83
2019-05-18T12:28:31.502Z,30.34
2019-05-18T12:29:30.486Z,29.92
2019-05-18T12:30:29.646Z,28.20
2019-05-18T12:31:29.978Z,27.35
2019-05-18T12:32:29.708Z,26.54
2019-05-18T12:33:29.797Z,26.12
2019-05-18T12:34:29.360Z,25.02
2019-05-18T12:35:29.572Z,25.31
2019-05-18T12:36:29.787Z,24.50
2019-05-18T12:37:29.378Z,24.51
2019-05-18T12:38:29.710Z,24.11
2019-05-18T12:39:29.908Z,24.69
2019-05-18T12:40:29.049Z,23.97
2019-05-18T12:41:29.100Z,24.53
2019-05-18T12:42:29.710Z,26.98
2019-05-18T12:43:30.728Z,29.03
2019-05-18T12:44:29.901Z,29.96
2019-05-18T12:45:28.988Z,31.40
2019-05-18T12:46:30.267Z,32.92
2019-05-18T12:47:28.978Z,32.53
2019-05-18T12:48:29.503Z,32.75
2019-05-18T12:49:29.407Z,33.45
2019-05-18T12:50:29.499Z,32.81
2019-05-18T12:51:30.287Z,31.24
2019-05-18T12:52:30.111Z,30.83
2019-05-18T12:53:29.070Z,31.16
2019-05-18T12:54:45.341Z,31.37
2019-05-18T12:55:30.873Z,31.57
2019-05-18T12:56:28.892Z,30.13
2019-05-18T12:57:29.218Z,28.99